createdAt,value
2022-12-05T00:00:09.004Z,99735.11
2022-12-05T00:02:56.721Z,99728.63
2022-12-05T00:05:28.910Z,99727.73
2022-12-05T00:07:57.015Z,99725.57
2022-12-05T00:10:24.825Z,99726.22
2022-12-05T00:12:52.640Z,99721.80
2022-12-05T00:15:24.658Z,99720.70
2022-12-05T00:17:52.457Z,99721.02
2022-12-05T00:20:22.413Z,99719.70
2022-12-05T00:22:50.410Z,99718.46
2022-12-05T00:25:18.504Z,99716.53
2022-12-05T00:27:46.503Z,99716.39
2022-12-05T00:30:14.350Z,99716.80
2022-12-05T00:32:42.352Z,99721.17
2022-12-05T00:35:10.344Z,99720.12
2022-12-05T00:37:38.345Z,99714.27
2022-12-05T00:40:11.093Z,99716.77
2022-12-05T00:42:39.370Z,99716.39
2022-12-05T00:45:11.441Z,99717.61
2022-12-05T00:47:39.508Z,99713.03
2022-12-05T00:50:10.511Z,99710.53
2022-12-05T00:52:38.510Z,99711.70
2022-12-05T00:55:10.399Z,99713.95
2022-12-05T00:57:38.221Z,99709.02
2022-12-05T01:00:10.724Z,99705.30
2022-12-05T01:02:38.774Z,99700.42
2022-12-05T01:05:10.539Z,99701.54
2022-12-05T01:07:38.595Z,99699.60
2022-12-05T01:10:10.378Z,99700.10
2022-12-05T01:12:38.182Z,99703.05
2022-12-05T01:15:10.264Z,99705.44
2022-12-05T01:17:38.504Z,99702.45
2022-12-05T01:20:09.539Z,99700.40
2022-12-05T01:22:40.467Z,99695.88
2022-12-05T01:25:10.123Z,99694.44
2022-12-05T01:27:37.931Z,99695.67
2022-12-05T01:30:09.999Z,99694.88
2022-12-05T01:32:37.995Z,99692.27
2022-12-05T01:35:11.257Z,99694.17
2022-12-05T01:37:39.272Z,99686.96
2022-12-05T01:40:11.291Z,99684.65
2022-12-05T01:42:43.559Z,99685.69
2022-12-05T01:45:35.500Z,99688.64
2022-12-05T01:48:12.948Z,99692.15
2022-12-05T01:50:45.476Z,99684.28
2022-12-05T01:53:18.329Z,99688.80
2022-12-05T01:55:53.078Z,99689.13
2022-12-05T01:58:35.062Z,99684.73
2022-12-05T02:01:06.999Z,99686.27
2022-12-05T02:03:40.830Z,99677.19
2022-12-05T02:06:13.302Z,99678.92
2022-12-05T02:08:46.934Z,99678.08
2022-12-05T02:11:14.804Z,99679.43
2022-12-05T02:14:04.728Z,99675.62
2022-12-05T02:16:51.637Z,99670.69
2022-12-05T02:19:56.120Z,99665.61
2022-12-05T02:22:59.585Z,99664.00
2022-12-05T02:26:04.834Z,99659.47
2022-12-05T02:28:42.357Z,99654.03
2022-12-05T02:31:19.427Z,99653.13
2022-12-05T02:34:18.611Z,99654.50
2022-12-05T02:36:52.288Z,99646.30
2022-12-05T02:39:29.109Z,99650.81
2022-12-05T02:42:36.011Z,99656.77
2022-12-05T02:45:13.587Z,99653.08
2022-12-05T02:47:49.995Z,99654.09
2022-12-05T02:50:32.376Z,99652.63
2022-12-05T02:53:07.153Z,99655.41
2022-12-05T02:55:41.360Z,99656.30
2022-12-05T02:58:28.027Z,99658.90
2022-12-05T03:01:01.223Z,99657.99
2022-12-05T03:03:33.852Z,99654.46
2022-12-05T03:06:10.700Z,99659.11
2022-12-05T03:08:57.846Z,99657.70
2022-12-05T03:11:34.642Z,99657.16
2022-12-05T03:14:10.907Z,99654.38
2022-12-05T03:16:47.046Z,99651.73
2022-12-05T03:19:30.449Z,99649.45
2022-12-05T03:22:02.516Z,99647.37
2022-12-05T03:24:37.009Z,99649.33
2022-12-05T03:27:27.935Z,99645.62
2022-12-05T03:30:14.380Z,99651.21
2022-12-05T03:32:49.664Z,99649.45
2022-12-05T03:35:27.560Z,99648.56
2022-12-05T03:38:04.239Z,99654.86
2022-12-05T03:40:51.737Z,99655.36
2022-12-05T03:43:39.280Z,99656.70
2022-12-05T03:46:32.723Z,99654.59
2022-12-05T03:49:22.175Z,99656.30
2022-12-05T03:52:06.471Z,99646.88
2022-12-05T03:54:59.687Z,99649.50
2022-12-05T03:57:36.674Z,99649.99
2022-12-05T04:00:09.995Z,99646.64
2022-12-05T04:03:00.177Z,99641.91
2022-12-05T04:05:45.836Z,99641.30
2022-12-05T04:08:30.499Z,99636.29
2022-12-05T04:11:02.873Z,99636.45
2022-12-05T04:13:40.673Z,99632.23
2022-12-05T04:16:37.528Z,99631.91
2022-12-05T04:19:51.130Z,99633.84
2022-12-05T04:22:25.110Z,99635.01
2022-12-05T04:25:18.484Z,99632.16
2022-12-05T04:28:21.012Z,99628.27
2022-12-05T04:31:06.650Z,99626.87
2022-12-05T04:34:01.650Z,99634.02
2022-12-05T04:36:43.554Z,99626.32
2022-12-05T04:39:30.185Z,99624.45
2022-12-05T04:42:07.599Z,99627.83
2022-12-05T04:44:43.978Z,99626.08
2022-12-05T04:47:18.868Z,99625.75
2022-12-05T04:49:53.468Z,99628.20
2022-12-05T04:52:28.504Z,99621.70
2022-12-05T04:55:31.856Z,99622.39
2022-12-05T04:58:18.758Z,99621.67
2022-12-05T05:01:14.403Z,99614.54
2022-12-05T05:04:02.378Z,99615.23
2022-12-05T05:06:34.812Z,99615.79
2022-12-05T05:09:02.525Z,99611.77
2022-12-05T05:11:36.444Z,99616.33
2022-12-05T05:14:06.711Z,99616.52
2022-12-05T05:16:42.366Z,99621.94
2022-12-05T05:19:14.238Z,99622.63
2022-12-05T05:21:44.471Z,99622.64
2022-12-05T05:24:12.631Z,99624.41
2022-12-05T05:26:45.816Z,99624.09
2022-12-05T05:29:18.182Z,99625.11
2022-12-05T05:31:50.313Z,99625.80
2022-12-05T05:34:18.199Z,99628.77
2022-12-05T05:36:45.942Z,99624.55
2022-12-05T05:39:15.509Z,99628.34
2022-12-05T05:41:48.075Z,99629.55
2022-12-05T05:44:15.817Z,99629.16
2022-12-05T05:46:43.714Z,99631.95
2022-12-05T05:49:11.455Z,99631.92
2022-12-05T05:51:39.257Z,99626.98
2022-12-05T05:54:07.248Z,99625.58
2022-12-05T05:56:35.116Z,99627.28
2022-12-05T05:59:10.826Z,99627.56
2022-12-05T06:01:39.394Z,99627.02
2022-12-05T06:04:11.333Z,99625.58
2022-12-05T06:06:44.827Z,99622.27
2022-12-05T06:09:12.788Z,99622.94
2022-12-05T06:11:40.782Z,99625.16
2022-12-05T06:14:13.712Z,99628.98
2022-12-05T06:16:41.602Z,99633.16
2022-12-05T06:19:09.372Z,99638.37
2022-12-05T06:21:37.344Z,99639.89
2022-12-05T06:24:07.964Z,99639.83
2022-12-05T06:26:35.827Z,99641.02
2022-12-05T06:29:03.600Z,99643.61
2022-12-05T06:31:38.452Z,99644.83
2022-12-05T06:34:06.248Z,99640.23
2022-12-05T06:36:33.994Z,99643.34
2022-12-05T06:39:01.903Z,99641.94
2022-12-05T06:41:29.954Z,99641.46
2022-12-05T06:44:05.470Z,99638.97
2022-12-05T06:46:33.298Z,99637.30
2022-12-05T06:49:05.737Z,99634.28
2022-12-05T06:51:33.466Z,99633.76
2022-12-05T06:54:01.196Z,99634.61
2022-12-05T06:56:33.891Z,99630.94
2022-12-05T06:59:01.638Z,99635.98
2022-12-05T07:01:38.933Z,99637.56
2022-12-05T07:04:24.422Z,99637.48
2022-12-05T07:06:58.612Z,99634.45
2022-12-05T07:09:54.148Z,99636.84
2022-12-05T07:12:21.992Z,99629.95
2022-12-05T07:14:50.358Z,99637.02
2022-12-05T07:17:22.894Z,99639.02
2022-12-05T07:19:55.933Z,99642.75
2022-12-05T07:22:28.711Z,99640.52
2022-12-05T07:24:56.454Z,99631.50
2022-12-05T07:27:27.551Z,99630.51
2022-12-05T07:30:00.344Z,99629.70
2022-12-05T07:32:37.895Z,99625.55
2022-12-05T07:35:10.237Z,99625.96
2022-12-05T07:37:38.045Z,99627.77
2022-12-05T07:40:11.310Z,99631.73
2022-12-05T07:42:39.109Z,99631.97
2022-12-05T07:45:11.547Z,99630.33
2022-12-05T07:47:39.393Z,99626.33
2022-12-05T07:50:10.391Z,99629.52
2022-12-05T07:52:38.240Z,99637.10
2022-12-05T07:55:09.180Z,99639.27
2022-12-05T07:57:37.160Z,99642.44
2022-12-05T08:00:08.046Z,99641.45
2022-12-05T08:02:40.457Z,99639.06
2022-12-05T08:05:10.885Z,99643.14
2022-12-05T08:07:38.879Z,99647.08
2022-12-05T08:10:11.458Z,99645.88
2022-12-05T08:12:44.043Z,99647.53
2022-12-05T08:15:12.036Z,99647.79
2022-12-05T08:17:42.990Z,99651.44
2022-12-05T08:20:15.360Z,99649.98
2022-12-05T08:22:43.161Z,99653.40
2022-12-05T08:25:13.173Z,99649.02
2022-12-05T08:27:42.163Z,99650.05
2022-12-05T08:30:10.005Z,99646.98
2022-12-05T08:32:37.831Z,99646.19
2022-12-05T08:35:05.741Z,99648.77
2022-12-05T08:37:33.505Z,99650.70
2022-12-05T08:40:03.874Z,99643.46
2022-12-05T08:42:32.070Z,99634.34
2022-12-05T08:45:00.174Z,99629.77
2022-12-05T08:47:32.781Z,99634.81
2022-12-05T08:50:08.348Z,99627.61
2022-12-05T08:52:36.452Z,99618.95
2022-12-05T08:55:06.881Z,99617.86
2022-12-05T08:57:34.774Z,99619.20
2022-12-05T09:00:08.390Z,99617.23
2022-12-05T09:02:36.199Z,99610.30
2022-12-05T09:05:25.857Z,99610.15
2022-12-05T09:07:57.016Z,99606.36
2022-12-05T09:10:30.708Z,99608.88
2022-12-05T09:12:58.796Z,99596.60
2022-12-05T09:15:26.904Z,99595.23
2022-12-05T09:17:55.207Z,99599.73
2022-12-05T09:20:23.103Z,99601.91
2022-12-05T09:22:53.219Z,99596.41
2022-12-05T09:25:20.997Z,99587.71
2022-12-05T09:27:48.845Z,99578.13
2022-12-05T09:30:16.618Z,99575.71
2022-12-05T09:32:44.372Z,99570.52
2022-12-05T09:35:12.250Z,99579.42
2022-12-05T09:37:41.606Z,99579.68
2022-12-05T09:40:18.958Z,99574.20
2022-12-05T09:43:09.216Z,99571.93
2022-12-05T09:45:55.906Z,99572.30
2022-12-05T09:48:29.562Z,99564.30
2022-12-05T09:51:04.191Z,99561.67
2022-12-05T09:53:38.960Z,99566.88
2022-12-05T09:56:15.150Z,99569.41
2022-12-05T09:58:54.332Z,99570.66
2022-12-05T10:01:48.443Z,99559.06
2022-12-05T10:04:43.478Z,99554.85
2022-12-05T10:07:40.219Z,99550.94
2022-12-05T10:10:35.845Z,99547.80
2022-12-05T10:13:29.225Z,99544.70
2022-12-05T10:16:11.216Z,99545.79
2022-12-05T10:19:00.081Z,99541.47
2022-12-05T10:21:40.990Z,99539.20
2022-12-05T10:24:40.911Z,99535.67
2022-12-05T10:27:20.495Z,99527.05
2022-12-05T10:30:00.003Z,99525.66
2022-12-05T10:32:56.544Z,99522.55
2022-12-05T10:35:34.711Z,99523.66
2022-12-05T10:38:31.375Z,99520.52
2022-12-05T10:41:07.681Z,99521.68
2022-12-05T10:43:40.728Z,99515.50
2022-12-05T10:46:12.742Z,99512.35
2022-12-05T10:48:46.060Z,99509.31
2022-12-05T10:51:23.590Z,99510.30
2022-12-05T10:53:56.867Z,99503.33
2022-12-05T10:56:39.970Z,99492.59
2022-12-05T10:59:18.378Z,99486.73
2022-12-05T11:01:58.004Z,99481.45
2022-12-05T11:04:45.095Z,99474.39
2022-12-05T11:07:53.909Z,99466.79
2022-12-05T11:10:44.196Z,99467.16
2022-12-05T11:13:31.059Z,99466.11
2022-12-05T11:16:03.959Z,99468.26
2022-12-05T11:18:37.578Z,99465.22
2022-12-05T11:21:14.695Z,99468.92
2022-12-05T11:23:42.555Z,99466.00
2022-12-05T11:26:36.503Z,99464.71
2022-12-05T11:29:33.922Z,99459.52
2022-12-05T11:32:21.479Z,99454.39
2022-12-05T11:35:16.158Z,99452.38
2022-12-05T11:38:00.917Z,99453.52
2022-12-05T11:41:16.143Z,99450.24
2022-12-05T11:44:02.535Z,99444.89
2022-12-05T11:47:19.499Z,99446.39
2022-12-05T11:50:05.763Z,99442.34
2022-12-05T11:53:02.549Z,99439.30
2022-12-05T11:55:43.613Z,99437.91
2022-12-05T11:58:36.677Z,99433.26
2022-12-05T12:01:33.962Z,99431.87
2022-12-05T12:04:32.236Z,99429.20
2022-12-05T12:07:33.880Z,99427.02
2022-12-05T12:10:25.198Z,99429.43
2022-12-05T12:13:30.883Z,99427.75
2022-12-05T12:16:08.515Z,99429.10
2022-12-05T12:18:49.078Z,99427.65
2022-12-05T12:21:39.633Z,99430.55
2022-12-05T12:24:31.723Z,99430.40
2022-12-05T12:27:36.948Z,99431.81
2022-12-05T12:30:22.621Z,99435.14
2022-12-05T12:33:21.510Z,99431.47
2022-12-05T12:36:16.677Z,99428.85
2022-12-05T12:39:12.148Z,99425.05
2022-12-05T12:41:55.296Z,99420.52
2022-12-05T12:44:36.907Z,99420.30
2022-12-05T12:47:34.027Z,99417.08
2022-12-05T12:50:31.557Z,99409.98
2022-12-05T12:53:36.029Z,99409.86
2022-12-05T12:56:06.830Z,99414.61
2022-12-05T12:59:11.227Z,99417.73
2022-12-05T13:01:57.346Z,99416.06
2022-12-05T13:04:50.371Z,99411.84
2022-12-05T13:07:34.816Z,99411.85
2022-12-05T13:10:16.513Z,99415.13
2022-12-05T13:12:49.845Z,99412.77
2022-12-05T13:15:38.911Z,99413.63
2022-12-05T13:18:16.153Z,99411.27
2022-12-05T13:20:50.925Z,99410.91
2022-12-05T13:23:28.552Z,99406.63
2022-12-05T13:26:12.828Z,99412.39
2022-12-05T13:29:07.363Z,99412.48
2022-12-05T13:31:44.863Z,99408.91
2022-12-05T13:34:38.728Z,99407.86
2022-12-05T13:37:37.210Z,99405.98
2022-12-05T13:40:46.090Z,99407.30
2022-12-05T13:43:26.870Z,99404.52
2022-12-05T13:46:09.525Z,99406.06
2022-12-05T13:48:47.131Z,99408.81
2022-12-05T13:51:23.835Z,99410.70
2022-12-05T13:54:04.900Z,99404.69
2022-12-05T13:56:58.128Z,99405.01
2022-12-05T14:00:06.800Z,99399.26
2022-12-05T14:02:45.549Z,99400.70
2022-12-05T14:05:39.833Z,99399.38
2022-12-05T14:08:26.506Z,99403.32
2022-12-05T14:10:54.243Z,99406.48
2022-12-05T14:13:27.244Z,99406.64
2022-12-05T14:16:23.858Z,99403.80
2022-12-05T14:19:16.734Z,99401.19
2022-12-05T14:22:03.039Z,99401.90
2022-12-05T14:24:57.872Z,99396.56
2022-12-05T14:27:43.291Z,99400.34
2022-12-05T14:30:31.963Z,99400.89
2022-12-05T14:33:16.183Z,99398.86
2022-12-05T14:35:53.460Z,99400.52
2022-12-05T14:38:33.232Z,99399.16
2022-12-05T14:41:36.904Z,99396.61
2022-12-05T14:44:18.613Z,99393.18
2022-12-05T14:46:46.606Z,99397.27
2022-12-05T14:49:53.656Z,99401.35
2022-12-05T14:52:30.214Z,99400.02
2022-12-05T14:55:07.367Z,99396.67
2022-12-05T14:57:43.107Z,99393.70
2022-12-05T15:00:21.351Z,99394.12
2022-12-05T15:02:53.145Z,99392.14
2022-12-05T15:05:30.013Z,99399.14
2022-12-05T15:08:01.717Z,99399.48
2022-12-05T15:10:38.731Z,99397.08
2022-12-05T15:13:19.089Z,99395.08
2022-12-05T15:16:01.872Z,99392.17
2022-12-05T15:18:49.426Z,99389.67
2022-12-05T15:21:49.204Z,99381.92
2022-12-05T15:24:22.662Z,99369.64
2022-12-05T15:26:52.742Z,99371.70
2022-12-05T15:29:28.312Z,99377.12
2022-12-05T15:32:03.432Z,99373.30
2022-12-05T15:34:56.295Z,99376.42
2022-12-05T15:38:05.196Z,99378.77
2022-12-05T15:40:37.800Z,99376.39
2022-12-05T15:43:41.339Z,99379.05
2022-12-05T15:46:20.939Z,99375.20
2022-12-05T15:48:48.868Z,99382.67
2022-12-05T15:51:25.600Z,99384.19
2022-12-05T15:54:14.152Z,99378.86
2022-12-05T15:57:04.344Z,99380.54
2022-12-05T15:59:58.960Z,99376.06
2022-12-05T16:02:52.104Z,99377.75
2022-12-05T16:05:35.451Z,99378.68
2022-12-05T16:08:08.755Z,99375.91
2022-12-05T16:10:36.795Z,99371.31
2022-12-05T16:13:21.967Z,99370.45
2022-12-05T16:15:58.733Z,99369.08
2022-12-05T16:18:30.699Z,99366.67
2022-12-05T16:21:03.173Z,99362.06
2022-12-05T16:23:37.761Z,99361.80
2022-12-05T16:26:25.710Z,99363.55
2022-12-05T16:29:03.015Z,99368.80
2022-12-05T16:31:36.500Z,99369.66
2022-12-05T16:34:10.290Z,99372.84
2022-12-05T16:37:01.675Z,99369.30
2022-12-05T16:39:29.704Z,99369.81
2022-12-05T16:42:03.070Z,99369.02
2022-12-05T16:44:45.896Z,99368.84
2022-12-05T16:47:51.736Z,99365.80
2022-12-05T16:50:36.927Z,99366.51
2022-12-05T16:53:07.806Z,99371.33
2022-12-05T16:55:46.713Z,99374.66
2022-12-05T16:58:27.146Z,99376.17
2022-12-05T17:01:09.267Z,99374.64
2022-12-05T17:03:37.183Z,99373.06
2022-12-05T17:06:07.261Z,99372.34
2022-12-05T17:08:35.204Z,99368.23
2022-12-05T17:11:20.918Z,99367.25
2022-12-05T17:13:55.130Z,99366.60
2022-12-05T17:16:29.380Z,99364.77
2022-12-05T17:18:57.183Z,99367.09
2022-12-05T17:21:35.374Z,99368.10
2022-12-05T17:24:19.378Z,99366.02
2022-12-05T17:26:52.091Z,99369.04
2022-12-05T17:29:19.842Z,99370.00
2022-12-05T17:31:47.935Z,99369.70
2022-12-05T17:34:20.085Z,99372.23
2022-12-05T17:36:47.939Z,99367.46
2022-12-05T17:39:15.702Z,99378.13
2022-12-05T17:41:43.652Z,99374.38
2022-12-05T17:44:15.759Z,99370.77
2022-12-05T17:46:47.069Z,99371.49
2022-12-05T17:49:21.553Z,99374.27
2022-12-05T17:52:20.201Z,99373.15
2022-12-05T17:54:39.210Z,99376.36
2022-12-05T17:57:07.234Z,99369.23
2022-12-05T17:59:34.993Z,99370.53
2022-12-05T18:02:02.763Z,99368.15
2022-12-05T18:04:30.550Z,99372.02
2022-12-05T18:06:58.288Z,99369.10
2022-12-05T18:09:26.101Z,99367.94
2022-12-05T18:11:54.010Z,99365.19
2022-12-05T18:14:21.832Z,99367.36
2022-12-05T18:16:49.791Z,99364.58
2022-12-05T18:19:17.633Z,99368.11
2022-12-05T18:24:18.124Z,99367.95
2022-12-05T18:26:52.272Z,99368.02
2022-12-05T18:29:20.051Z,99365.80
2022-12-05T18:31:53.078Z,99362.52
2022-12-05T18:34:21.007Z,99363.52
2022-12-05T18:36:50.304Z,99362.73
2022-12-05T18:39:18.317Z,99359.77
2022-12-05T18:41:46.297Z,99357.52
2022-12-05T18:44:14.065Z,99357.95
2022-12-05T18:46:42.972Z,99367.94
2022-12-05T18:49:13.489Z,99365.33
2022-12-05T18:51:43.234Z,99359.89
2022-12-05T18:54:11.013Z,99360.41
2022-12-05T18:56:44.850Z,99362.36
2022-12-05T18:59:22.483Z,99359.02
2022-12-05T19:01:50.654Z,99354.95
2022-12-05T19:04:23.154Z,99353.95
2022-12-05T19:06:54.856Z,99351.05
2022-12-05T19:09:29.009Z,99352.30
2022-12-05T19:12:02.079Z,99347.50
2022-12-05T19:14:36.837Z,99347.43
2022-12-05T19:17:04.655Z,99350.41
2022-12-05T19:19:32.570Z,99349.35
2022-12-05T19:22:05.697Z,99349.60
2022-12-05T19:24:33.617Z,99350.25
2022-12-05T19:27:01.431Z,99352.65
2022-12-05T19:29:29.219Z,99355.41
2022-12-05T19:31:57.056Z,99351.91
2022-12-05T19:34:24.957Z,99352.23
2022-12-05T19:36:52.724Z,99355.66
2022-12-05T19:39:27.025Z,99354.73
2022-12-05T19:42:00.763Z,99353.27
2022-12-05T19:44:30.197Z,99352.38
2022-12-05T19:46:58.157Z,99353.02
2022-12-05T19:49:25.984Z,99340.17
2022-12-05T19:51:53.799Z,99337.58
2022-12-05T19:54:24.110Z,99337.85
2022-12-05T19:56:52.848Z,99330.96
2022-12-05T19:59:21.332Z,99330.98
2022-12-05T20:01:50.119Z,99329.25
2022-12-05T20:04:18.059Z,99324.41
2022-12-05T20:06:48.046Z,99327.05
2022-12-05T20:09:18.836Z,99326.17
2022-12-05T20:11:54.606Z,99330.57
2022-12-05T20:14:25.989Z,99330.27
2022-12-05T20:16:54.336Z,99329.23
2022-12-05T20:19:23.577Z,99331.70
2022-12-05T20:21:51.659Z,99332.88
2022-12-05T20:24:19.499Z,99331.52
2022-12-05T20:26:47.591Z,99327.34
2022-12-05T20:29:15.463Z,99326.13
2022-12-05T20:31:43.584Z,99319.62
2022-12-05T20:34:13.907Z,99318.74
2022-12-05T20:36:43.910Z,99319.48
2022-12-05T20:39:16.757Z,99317.10
2022-12-05T20:41:45.039Z,99315.75
2022-12-05T20:44:16.602Z,99312.14
2022-12-05T20:46:45.461Z,99311.79
2022-12-05T20:49:13.993Z,99312.64
2022-12-05T20:51:44.174Z,99313.91
2022-12-05T20:54:14.123Z,99312.33
2022-12-05T20:56:42.580Z,99317.17
2022-12-05T20:59:12.458Z,99316.23
2022-12-05T21:01:40.601Z,99312.91
2022-12-05T21:04:09.601Z,99311.45
2022-12-05T21:06:40.626Z,99311.25
2022-12-05T21:09:26.881Z,99308.41
2022-12-05T21:11:56.021Z,99307.31
2022-12-05T21:14:24.768Z,99304.02
2022-12-05T21:16:53.276Z,99305.36
2022-12-05T21:19:21.667Z,99302.35
2022-12-05T21:21:49.431Z,99304.79
2022-12-05T21:24:17.358Z,99302.86
2022-12-05T21:26:46.907Z,99301.81
2022-12-05T21:29:14.760Z,99304.26
2022-12-05T21:31:44.223Z,99299.70
2022-12-05T21:34:17.731Z,99303.20
2022-12-05T21:36:46.006Z,99307.73
2022-12-05T21:39:15.854Z,99306.98
2022-12-05T21:41:43.787Z,99310.11
2022-12-05T21:44:11.608Z,99307.95
2022-12-05T21:46:39.559Z,99301.77
2022-12-05T21:49:07.671Z,99303.64
2022-12-05T21:51:35.558Z,99302.73
2022-12-05T21:54:03.677Z,99299.19
2022-12-05T21:56:32.419Z,99296.48
2022-12-05T21:59:00.207Z,99294.50
2022-12-05T22:01:28.687Z,99293.86
2022-12-05T22:04:01.328Z,99292.86
2022-12-05T22:06:34.009Z,99286.77
2022-12-05T22:09:02.742Z,99286.05
2022-12-05T22:11:30.916Z,99280.71
2022-12-05T22:13:59.259Z,99278.33
2022-12-05T22:16:32.865Z,99271.03
2022-12-05T22:19:03.177Z,99271.08
2022-12-05T22:21:34.381Z,99268.71
2022-12-05T22:24:02.605Z,99268.23
2022-12-05T22:26:30.569Z,99267.55
2022-12-05T22:28:58.561Z,99262.86
2022-12-05T22:31:26.533Z,99262.50
2022-12-05T22:33:54.983Z,99254.64
2022-12-05T22:36:24.492Z,99249.42
2022-12-05T22:38:52.698Z,99242.30
2022-12-05T22:41:23.317Z,99247.16
2022-12-05T22:43:56.644Z,99243.31
2022-12-05T22:46:27.084Z,99250.45
2022-12-05T22:48:55.959Z,99246.39
2022-12-05T22:51:24.314Z,99243.77
2022-12-05T22:53:53.210Z,99244.23
2022-12-05T22:56:23.905Z,99245.44
2022-12-05T22:58:57.061Z,99242.44
2022-12-05T23:01:30.643Z,99242.20
2022-12-05T23:04:11.937Z,99245.70
2022-12-05T23:06:40.354Z,99243.23
2022-12-05T23:09:10.781Z,99241.09
2022-12-05T23:11:39.892Z,99240.71
2022-12-05T23:14:08.425Z,99238.41
2022-12-05T23:16:36.867Z,99238.17
2022-12-05T23:19:06.057Z,99231.30
2022-12-05T23:21:36.950Z,99232.29
2022-12-05T23:24:11.292Z,99229.33
2022-12-05T23:26:45.148Z,99230.91
2022-12-05T23:29:15.015Z,99230.50
2022-12-05T23:31:44.311Z,99231.50
2022-12-05T23:34:12.684Z,99226.05
2022-12-05T23:36:40.964Z,99226.39
2022-12-05T23:39:09.337Z,99227.93
2022-12-05T23:41:37.140Z,99220.34
2022-12-05T23:44:05.025Z,99217.32
2022-12-05T23:46:32.939Z,99213.43
2022-12-05T23:49:01.525Z,99210.46
2022-12-05T23:51:31.643Z,99206.96
2022-12-05T23:54:02.479Z,99203.98
2022-12-05T23:56:32.737Z,99199.44
2022-12-05T23:59:02.915Z,99202.05
